Ahoskie, NC

5:43 PM EST on December 04, 2016 (GMT -0500)
Tri County | | Change Station

Elev 69 ft 36.30 °N, 77.17 °W | Updated 18 minutes ago

Overcast
Overcast
44 °F
Feels Like 44 °F
N
0
Wind Variable Wind from North

Today
High -- | Low -- °F
--% Chance of Precip.
Yesterday
High -- | Low -- °F
Precip. -- in
Pressure 30.22 in
Visibility 10.0 miles
Clouds Scattered Clouds 4700 ft
Scattered Clouds 7500 ft
Overcast 9000 ft
Dew Point 37 °F
Humidity 76%
Rainfall 0.00 in
Snow Depth Not available.
7:03 AM 4:52 PM
Waxing Crescent, 26% visible
METAR KASJ 042225Z AUTO 00000KT 10SM SCT047 SCT075 OVC090 07/03 A3022 RMK AO2 T00670027
Pressure 30.22 in
Visibility 10.0 miles
Clouds Scattered Clouds 4700 ft
Scattered Clouds 7500 ft
Overcast 9000 ft
Dew Point 37 °F
Humidity 76%
Rainfall 0.00 in
Snow Depth Not available.
7:03 AM 4:52 PM
Waxing Crescent, 26% visible
METAR KASJ 042225Z AUTO 00000KT 10SM SCT047 SCT075 OVC090 07/03 A3022 RMK AO2 T00670027

10-Day Weather Forecast

Almanac

Astronomy

Dec. 04, 2016 Rise Set
Actual Time
Civil Twilight
Nautical Twilight
Astronomical Twilight
Moon
Length of Visible Light
Length of Day
Tomorrow will be .
, % of the Moon is Illuminated

Today's Extremes

State Highs State Lows

Community

WunderPhotos

Upload Photos

1,955,686 photos uploaded!

WunderBlog® & News

Nearby

Air Quality

  Air Quality AQ Index Pollutant
Not available.

Snow Depth

Station Depth Elevation

Earthquake Activity

City Distance Mag. Time & Date
Minimum magnitude displayed is 2.5.

Coastal Water Temperatures

Place Temperature

Stations

Nearby Weather Stations

Station Location Temp. Windchill Dew Point Humidity Wind Precip. Elev Updated Type
                   

Watches & Warnings

There are currently no watches in effect.